createdAt,value
2022-10-05T00:00:26.686Z,68.41
2022-10-05T00:03:21.227Z,68.24
2022-10-05T00:05:55.265Z,68.23
2022-10-05T00:08:34.865Z,68.18
2022-10-05T00:11:10.047Z,68.17
2022-10-05T00:13:44.005Z,68.10
2022-10-05T00:16:20.633Z,68.09
2022-10-05T00:18:55.527Z,68.03
2022-10-05T00:21:30.580Z,67.99
2022-10-05T00:24:08.870Z,68.19
2022-10-05T00:26:42.322Z,68.19
2022-10-05T00:29:22.648Z,68.05
2022-10-05T00:31:56.942Z,67.98
2022-10-05T00:34:34.941Z,67.97
2022-10-05T00:37:09.426Z,68.20
2022-10-05T00:39:44.023Z,68.05
2022-10-05T00:42:44.860Z,68.12
2022-10-05T00:45:23.272Z,68.05
2022-10-05T00:48:07.893Z,68.12
2022-10-05T00:50:57.043Z,68.09
2022-10-05T00:53:45.382Z,68.09
2022-10-05T00:56:34.664Z,68.32
2022-10-05T00:59:20.903Z,68.36
2022-10-05T01:02:01.763Z,68.52
2022-10-05T01:04:44.743Z,68.34
2022-10-05T01:07:28.265Z,68.20
2022-10-05T01:10:09.822Z,68.15
2022-10-05T01:12:51.445Z,68.21
2022-10-05T01:15:32.399Z,68.16
2022-10-05T01:18:39.427Z,68.22
2022-10-05T01:21:21.223Z,68.33
2022-10-05T01:24:09.540Z,68.62
2022-10-05T01:27:23.418Z,68.65
2022-10-05T01:30:03.129Z,68.59
2022-10-05T01:32:43.649Z,68.49
2022-10-05T01:35:40.999Z,68.52
2022-10-05T01:38:30.657Z,68.64
2022-10-05T01:41:13.557Z,68.62
2022-10-05T01:43:51.167Z,68.77
2022-10-05T01:46:33.602Z,68.93
2022-10-05T01:49:25.606Z,68.91
2022-10-05T01:52:10.672Z,68.68
2022-10-05T01:54:59.492Z,68.66
2022-10-05T01:57:45.483Z,68.81
2022-10-05T02:00:21.472Z,68.93
2022-10-05T02:03:03.463Z,68.84
2022-10-05T02:05:46.453Z,68.97
2022-10-05T02:08:28.991Z,68.87
2022-10-05T02:11:07.828Z,68.98
2022-10-05T02:13:45.287Z,68.86
2022-10-05T02:16:25.318Z,68.93
2022-10-05T02:19:04.116Z,68.85
2022-10-05T02:21:38.219Z,68.85
2022-10-05T02:24:15.513Z,69.03
2022-10-05T02:26:50.379Z,68.95
2022-10-05T02:29:26.172Z,69.06
2022-10-05T02:32:03.456Z,69.21
2022-10-05T02:34:41.869Z,69.41
2022-10-05T02:37:26.940Z,69.43
2022-10-05T02:40:25.283Z,69.90
2022-10-05T02:43:08.576Z,69.76
2022-10-05T02:45:52.619Z,69.78
2022-10-05T02:48:35.843Z,69.69
2022-10-05T02:51:18.053Z,69.79
2022-10-05T02:54:02.957Z,69.96
2022-10-05T02:56:45.119Z,70.01
2022-10-05T02:59:27.587Z,70.14
2022-10-05T03:02:09.175Z,70.12
2022-10-05T03:04:50.352Z,70.21
2022-10-05T03:07:31.327Z,70.22
2022-10-05T03:10:11.522Z,70.33
2022-10-05T03:13:02.585Z,70.35
2022-10-05T03:16:02.040Z,70.43
2022-10-05T03:18:50.455Z,70.36
2022-10-05T03:21:41.180Z,70.46
2022-10-05T03:24:41.653Z,70.47
2022-10-05T03:27:25.507Z,70.58
2022-10-05T03:30:05.087Z,70.62
2022-10-05T03:32:51.671Z,70.72
2022-10-05T03:35:30.242Z,70.84
2022-10-05T03:38:13.800Z,70.64
2022-10-05T03:40:56.145Z,70.65
2022-10-05T03:44:01.260Z,70.63
2022-10-05T03:46:50.496Z,70.74
2022-10-05T03:49:34.145Z,70.72
2022-10-05T03:52:14.301Z,70.82
2022-10-05T03:54:50.578Z,70.75
2022-10-05T03:57:26.401Z,70.91
2022-10-05T04:00:05.153Z,70.89
2022-10-05T04:02:51.713Z,71.09
2022-10-05T04:05:31.541Z,71.10
2022-10-05T04:08:10.635Z,71.05
2022-10-05T04:10:50.570Z,71.07
2022-10-05T04:13:31.050Z,71.29
2022-10-05T04:16:09.873Z,71.32
2022-10-05T04:18:49.813Z,71.57
2022-10-05T04:21:26.797Z,71.47
2022-10-05T04:24:05.049Z,71.49
2022-10-05T04:26:46.247Z,71.08
2022-10-05T04:29:30.904Z,71.04
2022-10-05T04:32:28.228Z,71.12
2022-10-05T04:35:20.968Z,71.22
2022-10-05T04:38:05.073Z,71.18
2022-10-05T04:40:52.204Z,71.13
2022-10-05T04:43:35.658Z,71.18
2022-10-05T04:46:22.850Z,71.20
2022-10-05T04:49:21.985Z,71.14
2022-10-05T04:52:07.925Z,71.32
2022-10-05T04:54:54.358Z,71.42
2022-10-05T04:57:36.290Z,71.44
2022-10-05T05:00:20.827Z,71.68
2022-10-05T05:03:17.879Z,71.69
2022-10-05T05:06:16.780Z,71.89
2022-10-05T05:09:26.708Z,72.01
2022-10-05T05:12:21.171Z,72.26
2022-10-05T05:15:17.640Z,72.13
2022-10-05T05:18:08.400Z,72.09
2022-10-05T05:20:55.471Z,72.14
2022-10-05T05:23:35.949Z,72.17
2022-10-05T05:26:18.759Z,72.10
2022-10-05T05:29:00.905Z,72.08
2022-10-05T05:31:45.395Z,72.08
2022-10-05T05:34:37.310Z,72.03
2022-10-05T05:37:21.344Z,72.07
2022-10-05T05:40:05.892Z,72.11
2022-10-05T05:42:49.100Z,72.14
2022-10-05T05:45:29.784Z,72.30
2022-10-05T05:48:11.168Z,72.36
2022-10-05T05:50:57.774Z,72.43
2022-10-05T05:53:38.965Z,72.65
2022-10-05T05:56:15.361Z,72.70
2022-10-05T05:58:55.858Z,72.79
2022-10-05T06:01:34.364Z,72.91
2022-10-05T06:04:18.030Z,72.76
2022-10-05T06:06:54.345Z,72.83
2022-10-05T06:09:35.152Z,72.82
2022-10-05T06:12:30.795Z,72.81
2022-10-05T06:15:22.966Z,72.83
2022-10-05T06:17:59.088Z,72.58
2022-10-05T06:20:41.599Z,72.54
2022-10-05T06:23:41.689Z,72.58
2022-10-05T06:26:30.026Z,72.57
2022-10-05T06:29:03.416Z,72.26
2022-10-05T06:31:59.271Z,72.38
2022-10-05T06:34:52.910Z,72.37
2022-10-05T06:37:40.402Z,72.41
2022-10-05T06:40:30.531Z,72.19
2022-10-05T06:43:16.702Z,72.04
2022-10-05T06:46:20.594Z,72.02
2022-10-05T06:49:20.564Z,71.96
2022-10-05T06:52:02.771Z,71.95
2022-10-05T06:54:49.868Z,71.94
2022-10-05T06:57:45.010Z,71.84
2022-10-05T07:00:25.196Z,71.52
2022-10-05T07:03:06.957Z,71.56
2022-10-05T07:05:53.716Z,71.47
2022-10-05T07:08:37.827Z,71.34
2022-10-05T07:11:25.256Z,70.96
2022-10-05T07:14:13.219Z,71.18
2022-10-05T07:17:03.307Z,71.20
2022-10-05T07:19:47.999Z,70.98
2022-10-05T07:22:37.496Z,70.86
2022-10-05T07:25:37.689Z,70.90
2022-10-05T07:28:15.666Z,70.87
2022-10-05T07:30:57.035Z,70.61
2022-10-05T07:33:36.290Z,70.63
2022-10-05T07:36:45.613Z,70.21
2022-10-05T07:39:42.062Z,69.86
2022-10-05T07:42:33.468Z,69.35
2022-10-05T07:45:19.306Z,68.79
2022-10-05T07:47:57.238Z,68.36
2022-10-05T07:50:37.550Z,68.24
2022-10-05T07:53:18.493Z,67.94
2022-10-05T07:55:56.521Z,67.68
2022-10-05T07:58:34.642Z,67.84
2022-10-05T08:01:19.594Z,67.76
2022-10-05T08:04:02.919Z,67.55
2022-10-05T08:06:52.017Z,67.62
2022-10-05T08:09:43.421Z,67.61
2022-10-05T08:12:36.480Z,67.72
2022-10-05T08:15:16.743Z,67.49
2022-10-05T08:17:57.519Z,66.83
2022-10-05T08:20:49.461Z,66.51
2022-10-05T08:23:27.469Z,66.63
2022-10-05T08:26:23.614Z,66.90
2022-10-05T08:29:13.759Z,66.25
2022-10-05T08:31:51.498Z,65.41
2022-10-05T08:34:32.405Z,65.10
2022-10-05T08:37:23.198Z,65.31
2022-10-05T08:40:06.251Z,65.66
2022-10-05T08:43:08.010Z,64.99
2022-10-05T08:46:10.728Z,65.33
2022-10-05T08:49:16.290Z,65.52
2022-10-05T08:52:14.641Z,65.24
2022-10-05T08:55:06.157Z,65.03
2022-10-05T08:58:22.925Z,64.60
2022-10-05T09:01:03.701Z,64.73
2022-10-05T09:04:21.960Z,64.62
2022-10-05T09:07:16.790Z,64.16
2022-10-05T09:10:43.079Z,63.71
2022-10-05T09:13:47.149Z,63.91
2022-10-05T09:16:40.288Z,63.90
2022-10-05T09:19:50.584Z,63.60
2022-10-05T09:22:38.642Z,62.73
2022-10-05T09:25:35.457Z,62.78
2022-10-05T09:28:25.104Z,62.53
2022-10-05T09:31:09.763Z,62.85
2022-10-05T09:34:41.599Z,62.51
2022-10-05T09:37:35.009Z,62.65
2022-10-05T09:40:45.097Z,62.75
2022-10-05T09:43:54.914Z,62.47
2022-10-05T09:47:03.039Z,62.16
2022-10-05T09:50:05.974Z,61.67
2022-10-05T09:53:12.667Z,61.97
2022-10-05T09:56:05.687Z,62.33
2022-10-05T09:59:06.171Z,62.40
2022-10-05T10:01:58.544Z,61.44
2022-10-05T10:04:45.411Z,61.46
2022-10-05T10:07:50.989Z,61.77
2022-10-05T10:10:52.770Z,62.00
2022-10-05T10:13:57.247Z,61.53
2022-10-05T10:16:50.087Z,61.15
2022-10-05T10:20:02.182Z,60.99
2022-10-05T10:23:25.620Z,60.70
2022-10-05T10:26:26.998Z,61.05
2022-10-05T10:29:21.915Z,60.96
2022-10-05T10:32:21.697Z,60.10
2022-10-05T10:35:19.201Z,58.25
2022-10-05T10:38:40.578Z,58.26
2022-10-05T10:41:54.892Z,57.71
2022-10-05T10:45:07.245Z,57.69
2022-10-05T10:47:52.372Z,57.08
2022-10-05T10:51:01.588Z,56.41
2022-10-05T10:54:03.041Z,56.20
2022-10-05T10:56:59.976Z,56.03
2022-10-05T11:00:15.980Z,55.54
2022-10-05T11:03:08.995Z,55.17
2022-10-05T11:06:12.239Z,55.88
2022-10-05T11:09:11.297Z,55.81
2022-10-05T11:12:14.171Z,55.10
2022-10-05T11:15:18.483Z,55.50
2022-10-05T11:18:07.874Z,55.70
2022-10-05T11:21:12.677Z,54.93
2022-10-05T11:24:17.026Z,55.91
2022-10-05T11:27:12.083Z,56.19
2022-10-05T11:30:14.618Z,55.96
2022-10-05T11:33:12.293Z,55.77
2022-10-05T11:36:10.596Z,55.38
2022-10-05T11:39:09.333Z,54.65
2022-10-05T11:42:12.800Z,54.60
2022-10-05T11:45:23.522Z,54.86
2022-10-05T11:48:29.859Z,55.08
2022-10-05T11:51:34.688Z,55.27
2022-10-05T11:54:52.196Z,55.12
2022-10-05T11:57:34.518Z,54.96
2022-10-05T12:00:17.793Z,54.83
2022-10-05T12:03:23.643Z,54.91
2022-10-05T12:06:07.981Z,54.76
2022-10-05T12:08:52.589Z,54.60
2022-10-05T12:11:48.961Z,54.42
2022-10-05T12:14:33.883Z,54.92
2022-10-05T12:17:16.026Z,55.19
2022-10-05T12:19:55.957Z,55.19
2022-10-05T12:22:43.464Z,54.99
2022-10-05T12:25:30.801Z,55.27
2022-10-05T12:28:10.819Z,55.35
2022-10-05T12:31:11.850Z,55.69
2022-10-05T12:33:53.863Z,55.76
2022-10-05T12:36:52.546Z,56.12
2022-10-05T12:39:41.071Z,55.72
2022-10-05T12:42:29.802Z,55.28
2022-10-05T12:45:25.775Z,55.31
2022-10-05T12:48:15.893Z,55.75
2022-10-05T12:50:56.905Z,56.07
2022-10-05T12:53:49.200Z,55.96
2022-10-05T12:56:39.051Z,56.22
2022-10-05T12:59:21.701Z,55.79
2022-10-05T13:02:30.255Z,55.81
2022-10-05T13:05:18.499Z,55.55
2022-10-05T13:08:22.971Z,55.60
2022-10-05T13:11:03.176Z,55.41
2022-10-05T13:13:58.102Z,55.13
2022-10-05T13:16:39.267Z,55.31
2022-10-05T13:19:40.953Z,55.46
2022-10-05T13:22:33.698Z,55.74
2022-10-05T13:25:27.674Z,55.73
2022-10-05T13:28:16.887Z,56.07
2022-10-05T13:30:59.934Z,56.08
2022-10-05T13:33:55.338Z,56.33
2022-10-05T13:36:40.086Z,56.32
2022-10-05T13:39:26.471Z,56.60
2022-10-05T13:42:06.399Z,56.69
2022-10-05T13:44:50.116Z,56.74
2022-10-05T13:47:32.482Z,57.22
2022-10-05T13:50:09.086Z,57.11
2022-10-05T13:52:57.100Z,57.17
2022-10-05T13:55:45.411Z,57.29
2022-10-05T13:58:34.367Z,57.23
2022-10-05T14:01:10.398Z,57.46
2022-10-05T14:04:04.378Z,57.62
2022-10-05T14:06:40.694Z,57.90
2022-10-05T14:09:29.422Z,58.00
2022-10-05T14:12:20.760Z,58.06
2022-10-05T14:14:56.039Z,58.05
2022-10-05T14:17:44.345Z,58.26
2022-10-05T14:20:29.100Z,58.32
2022-10-05T14:23:26.302Z,58.76
2022-10-05T14:26:04.124Z,58.87
2022-10-05T14:28:44.052Z,58.97
2022-10-05T14:31:29.039Z,59.16
2022-10-05T14:34:27.661Z,59.24
2022-10-05T14:37:00.344Z,59.17
2022-10-05T14:39:42.415Z,59.45
2022-10-05T14:42:21.447Z,59.74
2022-10-05T14:45:16.680Z,59.80
2022-10-05T14:47:53.638Z,59.79
2022-10-05T14:50:30.170Z,60.04
2022-10-05T14:53:18.670Z,60.12
2022-10-05T14:56:20.949Z,60.29
2022-10-05T14:59:10.360Z,60.30
2022-10-05T15:01:54.189Z,60.18
2022-10-05T15:04:39.732Z,60.33
2022-10-05T15:07:24.514Z,60.44
2022-10-05T15:10:30.505Z,60.64
2022-10-05T15:13:14.005Z,60.66
2022-10-05T15:15:56.113Z,60.90
2022-10-05T15:18:36.662Z,60.91
2022-10-05T15:21:32.412Z,61.05
2022-10-05T15:24:28.291Z,61.09
2022-10-05T15:27:05.527Z,61.06
2022-10-05T15:29:55.174Z,61.24
2022-10-05T15:32:45.401Z,61.32
2022-10-05T15:35:40.632Z,61.36
2022-10-05T15:38:22.735Z,61.46
2022-10-05T15:41:06.253Z,61.45
2022-10-05T15:43:50.657Z,61.30
2022-10-05T15:46:34.686Z,61.39
2022-10-05T15:49:25.166Z,61.59
2022-10-05T15:52:07.656Z,61.76
2022-10-05T15:55:13.186Z,61.87
2022-10-05T15:57:55.388Z,62.05
2022-10-05T16:00:31.765Z,62.16
2022-10-05T16:03:15.069Z,62.25
2022-10-05T16:06:10.860Z,62.45
2022-10-05T16:09:12.432Z,62.51
2022-10-05T16:12:04.017Z,62.70
2022-10-05T16:14:49.911Z,62.80
2022-10-05T16:17:38.279Z,63.09
2022-10-05T16:20:27.281Z,63.13
2022-10-05T16:23:10.464Z,63.23
2022-10-05T16:25:55.702Z,63.43
2022-10-05T16:28:39.578Z,63.40
2022-10-05T16:31:19.490Z,63.50
2022-10-05T16:34:02.303Z,63.67
2022-10-05T16:36:50.069Z,63.82
2022-10-05T16:39:48.905Z,63.92
2022-10-05T16:42:36.811Z,63.96
2022-10-05T16:45:27.075Z,64.03
2022-10-05T16:48:10.156Z,64.13
2022-10-05T16:50:56.272Z,64.18
2022-10-05T16:53:35.202Z,64.27
2022-10-05T16:56:16.509Z,64.37
2022-10-05T16:59:04.512Z,64.40
2022-10-05T17:01:51.696Z,64.69
2022-10-05T17:04:38.957Z,64.77
2022-10-05T17:07:29.880Z,64.75
2022-10-05T17:10:49.824Z,64.97
2022-10-05T17:13:40.236Z,65.08
2022-10-05T17:16:24.153Z,64.99
2022-10-05T17:19:20.677Z,65.11
2022-10-05T17:22:00.977Z,65.23
2022-10-05T17:24:54.433Z,65.25
2022-10-05T17:27:36.884Z,65.26
2022-10-05T17:30:40.242Z,65.26
2022-10-05T17:33:26.688Z,65.46
2022-10-05T17:36:18.327Z,65.50
2022-10-05T17:39:12.723Z,65.48
2022-10-05T17:41:47.141Z,65.71
2022-10-05T17:44:31.161Z,65.69
2022-10-05T17:47:09.291Z,65.76
2022-10-05T17:50:16.818Z,65.79
2022-10-05T17:53:40.597Z,65.81
2022-10-05T17:56:14.116Z,65.81
2022-10-05T17:59:02.380Z,65.93
2022-10-05T18:01:38.688Z,66.01
2022-10-05T18:05:02.287Z,65.92
2022-10-05T18:07:36.829Z,65.84
2022-10-05T18:10:29.572Z,65.98
2022-10-05T18:13:22.526Z,66.12
2022-10-05T18:15:56.039Z,65.97
2022-10-05T18:19:01.369Z,65.91
2022-10-05T18:21:39.594Z,65.90
2022-10-05T18:24:35.320Z,65.89
2022-10-05T18:27:32.542Z,65.74
2022-10-05T18:30:21.252Z,65.48
2022-10-05T18:33:19.932Z,65.52
2022-10-05T18:36:04.968Z,65.41
2022-10-05T18:38:51.523Z,65.31
2022-10-05T18:41:41.798Z,65.43
2022-10-05T18:44:37.010Z,65.33
2022-10-05T18:47:20.171Z,65.31
2022-10-05T18:50:04.926Z,65.33
2022-10-05T18:52:59.348Z,65.24
2022-10-05T18:55:41.477Z,65.29
2022-10-05T18:58:22.807Z,65.20
2022-10-05T19:01:27.654Z,65.09
2022-10-05T19:04:18.339Z,64.99
2022-10-05T19:06:59.497Z,64.99
2022-10-05T19:09:53.229Z,65.15
2022-10-05T19:12:41.361Z,64.95
2022-10-05T19:15:19.283Z,64.89
2022-10-05T19:18:07.579Z,64.83
2022-10-05T19:20:50.773Z,65.05
2022-10-05T19:23:47.016Z,64.95
2022-10-05T19:26:32.790Z,64.73
2022-10-05T19:29:23.115Z,64.78
2022-10-05T19:32:03.125Z,64.75
2022-10-05T19:34:50.461Z,64.80
2022-10-05T19:37:32.740Z,64.68
2022-10-05T19:40:16.845Z,64.77
2022-10-05T19:43:03.436Z,64.63
2022-10-05T19:45:41.071Z,64.67
2022-10-05T19:48:28.514Z,64.57
2022-10-05T19:51:28.325Z,64.64
2022-10-05T19:54:15.822Z,64.51
2022-10-05T19:56:53.822Z,64.54
2022-10-05T19:59:31.726Z,64.47
2022-10-05T20:02:05.743Z,64.44
2022-10-05T20:04:41.241Z,64.39
2022-10-05T20:07:22.755Z,64.52
2022-10-05T20:09:59.815Z,64.40
2022-10-05T20:12:59.695Z,64.44
2022-10-05T20:15:53.328Z,64.64
2022-10-05T20:19:08.163Z,64.58
2022-10-05T20:21:50.851Z,64.53
2022-10-05T20:24:25.979Z,64.42
2022-10-05T20:27:06.483Z,64.57
2022-10-05T20:29:42.678Z,64.63
2022-10-05T20:32:18.364Z,64.55
2022-10-05T20:34:56.070Z,64.66
2022-10-05T20:37:29.483Z,64.68
2022-10-05T20:40:03.479Z,64.73
2022-10-05T20:42:37.876Z,64.65
2022-10-05T20:45:14.509Z,64.71
2022-10-05T20:47:48.212Z,64.63
2022-10-05T20:50:22.540Z,64.88
2022-10-05T20:53:09.628Z,65.07
2022-10-05T20:55:45.172Z,65.04
2022-10-05T20:58:19.627Z,65.05
2022-10-05T21:01:10.750Z,65.17
2022-10-05T21:03:44.286Z,65.05
2022-10-05T21:06:18.713Z,65.04
2022-10-05T21:09:02.997Z,65.32
2022-10-05T21:11:36.744Z,65.40
2022-10-05T21:14:10.413Z,65.34
2022-10-05T21:16:46.085Z,65.50
2022-10-05T21:19:19.744Z,65.56
2022-10-05T21:21:54.650Z,65.54
2022-10-05T21:24:28.781Z,65.73
2022-10-05T21:27:02.258Z,65.54
2022-10-05T21:29:36.850Z,65.59
2022-10-05T21:32:13.403Z,65.44
2022-10-05T21:34:47.084Z,65.34
2022-10-05T21:37:21.043Z,65.11
2022-10-05T21:39:54.625Z,65.13
2022-10-05T21:42:28.102Z,65.04
2022-10-05T21:45:01.642Z,65.14
2022-10-05T21:47:35.286Z,65.13
2022-10-05T21:50:10.662Z,65.23
2022-10-05T21:52:44.180Z,65.35
2022-10-05T21:55:18.743Z,65.36
2022-10-05T21:57:52.837Z,65.35
2022-10-05T22:00:26.385Z,65.34
2022-10-05T22:03:00.104Z,65.33
2022-10-05T22:05:34.061Z,65.34
2022-10-05T22:08:08.169Z,65.38
2022-10-05T22:10:41.553Z,65.26
2022-10-05T22:13:14.793Z,65.40
2022-10-05T22:15:48.315Z,65.56
2022-10-05T22:18:22.323Z,65.67
2022-10-05T22:20:55.865Z,65.78
2022-10-05T22:23:29.462Z,66.02
2022-10-05T22:26:03.279Z,66.12
2022-10-05T22:28:38.893Z,66.13
2022-10-05T22:31:13.648Z,66.19
2022-10-05T22:33:47.382Z,66.27
2022-10-05T22:36:21.060Z,66.22
2022-10-05T22:38:55.171Z,66.30
2022-10-05T22:41:28.800Z,66.42
2022-10-05T22:44:03.123Z,66.36
2022-10-05T22:46:36.611Z,66.54
2022-10-05T22:49:09.863Z,66.51
2022-10-05T22:51:43.538Z,66.52
2022-10-05T22:54:17.262Z,66.67
2022-10-05T22:56:50.935Z,66.81
2022-10-05T22:59:26.247Z,66.80
2022-10-05T23:01:59.572Z,66.91
2022-10-05T23:04:33.258Z,67.05
2022-10-05T23:07:07.172Z,66.88
2022-10-05T23:09:40.697Z,66.90
2022-10-05T23:12:15.328Z,66.96
2022-10-05T23:14:48.879Z,67.24
2022-10-05T23:17:25.253Z,67.13
2022-10-05T23:19:58.793Z,67.23
2022-10-05T23:22:32.594Z,67.29
2022-10-05T23:25:06.249Z,67.26
2022-10-05T23:27:44.555Z,67.29
2022-10-05T23:30:18.258Z,67.47
2022-10-05T23:32:52.585Z,67.44
2022-10-05T23:35:26.104Z,67.62
2022-10-05T23:37:59.649Z,67.67
2022-10-05T23:40:33.391Z,67.54
2022-10-05T23:43:07.073Z,67.68
2022-10-05T23:45:49.895Z,67.89
2022-10-05T23:48:27.545Z,67.99
2022-10-05T23:51:02.280Z,67.93
2022-10-05T23:53:35.949Z,67.83
2022-10-05T23:56:18.670Z,68.00
2022-10-05T23:58:55.239Z,68.09
